createdAt,value
2018-06-11T00:01:19.081Z,99374.84
2018-06-11T00:03:46.701Z,99375.58
2018-06-11T00:06:14.365Z,99379.62
2018-06-11T00:08:42.004Z,99382.78
2018-06-11T00:11:09.627Z,99381.13
2018-06-11T00:13:37.226Z,99390.38
2018-06-11T00:16:04.879Z,99383.23
2018-06-11T00:18:32.541Z,99380.25
2018-06-11T00:21:00.153Z,99380.02
2018-06-11T00:23:27.775Z,99379.34
2018-06-11T00:25:55.402Z,99377.87
2018-06-11T00:28:23.021Z,99379.52
2018-06-11T00:30:50.616Z,99379.32
2018-06-11T00:33:18.263Z,99380.80
2018-06-11T00:35:45.873Z,99389.26
2018-06-11T00:38:13.474Z,99388.22
2018-06-11T00:40:41.126Z,99401.20
2018-06-11T00:43:09.216Z,99387.84
2018-06-11T00:45:36.908Z,99393.25
2018-06-11T00:48:04.840Z,99399.80
2018-06-11T00:50:32.510Z,99399.82
2018-06-11T00:53:00.132Z,99399.13
2018-06-11T00:56:11.758Z,99407.56
2018-06-11T00:58:39.369Z,99408.73
2018-06-11T01:01:07.031Z,99410.25
2018-06-11T01:03:34.721Z,99414.03
2018-06-11T01:06:02.280Z,99413.07
2018-06-11T01:08:30.852Z,99406.91
2018-06-11T01:10:58.518Z,99400.42
2018-06-11T01:13:26.163Z,99402.48
2018-06-11T01:15:53.710Z,99402.52
2018-06-11T01:18:21.278Z,99401.69
2018-06-11T01:20:48.862Z,99394.92
2018-06-11T01:23:16.488Z,99405.98
2018-06-11T01:25:44.043Z,99398.09
2018-06-11T01:28:11.616Z,99400.70
2018-06-11T01:30:39.199Z,99408.47
2018-06-11T01:33:06.798Z,99412.33
2018-06-11T01:35:34.375Z,99406.36
2018-06-11T01:38:01.965Z,99401.70
2018-06-11T01:40:29.625Z,99405.00
2018-06-11T01:42:57.250Z,99404.77
2018-06-11T01:45:24.934Z,99402.65
2018-06-11T01:47:52.536Z,99394.47
2018-06-11T01:50:20.077Z,99390.33
2018-06-11T01:52:47.658Z,99386.59
2018-06-11T01:55:15.548Z,99380.84
2018-06-11T01:57:43.105Z,99380.81
2018-06-11T02:00:10.727Z,99381.59
2018-06-11T02:02:38.344Z,99379.95
2018-06-11T02:05:05.904Z,99380.70
2018-06-11T02:07:33.496Z,99389.19
2018-06-11T02:10:01.102Z,99398.36
2018-06-11T02:12:28.676Z,99399.77
2018-06-11T02:14:56.311Z,99405.40
2018-06-11T02:17:23.885Z,99396.41
2018-06-11T02:19:51.419Z,99402.53
2018-06-11T02:22:18.989Z,99399.05
2018-06-11T02:24:46.581Z,99405.91
2018-06-11T02:27:14.116Z,99399.88
2018-06-11T02:29:41.673Z,99400.83
2018-06-11T02:32:09.254Z,99404.38
2018-06-11T02:34:36.815Z,99401.34
2018-06-11T02:37:04.427Z,99401.20
2018-06-11T02:39:32.009Z,99398.69
2018-06-11T02:41:59.597Z,99397.69
2018-06-11T02:44:27.234Z,99394.12
2018-06-11T02:46:54.827Z,99400.52
2018-06-11T02:49:22.486Z,99401.20
2018-06-11T02:51:50.057Z,99399.87
2018-06-11T02:54:17.711Z,99400.89
2018-06-11T02:56:45.280Z,99403.88
2018-06-11T02:59:12.942Z,99405.94
2018-06-11T03:01:40.511Z,99404.16
2018-06-11T03:04:08.060Z,99413.17
2018-06-11T03:06:35.660Z,99412.25
2018-06-11T03:09:05.194Z,99417.88
2018-06-11T03:11:32.874Z,99429.33
2018-06-11T03:14:00.469Z,99422.95
2018-06-11T03:16:28.189Z,99420.88
2018-06-11T03:18:55.778Z,99427.99
2018-06-11T03:21:23.392Z,99434.79
2018-06-11T03:23:50.998Z,99438.05
2018-06-11T03:26:18.573Z,99439.84
2018-06-11T03:28:46.153Z,99438.81
2018-06-11T03:31:13.809Z,99442.09
2018-06-11T03:33:41.449Z,99449.69
2018-06-11T03:36:09.063Z,99442.39
2018-06-11T03:38:36.669Z,99444.52
2018-06-11T03:41:04.242Z,99444.87
2018-06-11T03:43:31.854Z,99451.28
2018-06-11T03:45:59.460Z,99448.62
2018-06-11T03:48:27.018Z,99446.77
2018-06-11T03:50:54.658Z,99444.25
2018-06-11T03:53:22.279Z,99442.21
2018-06-11T03:55:49.861Z,99432.86
2018-06-11T03:58:17.446Z,99446.06
2018-06-11T04:00:45.119Z,99453.22
2018-06-11T04:03:12.814Z,99452.91
2018-06-11T04:05:40.425Z,99461.98
2018-06-11T04:08:07.999Z,99468.39
2018-06-11T04:10:35.631Z,99471.63
2018-06-11T04:13:03.355Z,99466.53
2018-06-11T04:15:30.967Z,99472.53
2018-06-11T04:17:58.521Z,99474.52
2018-06-11T04:20:26.119Z,99472.08
2018-06-11T04:22:53.729Z,99464.27
2018-06-11T04:25:21.380Z,99463.31
2018-06-11T04:27:48.966Z,99467.76
2018-06-11T04:30:16.523Z,99467.15
2018-06-11T04:32:44.133Z,99465.73
2018-06-11T04:35:11.990Z,99466.19
2018-06-11T04:37:39.628Z,99473.52
2018-06-11T04:40:07.222Z,99473.11
2018-06-11T04:42:34.846Z,99473.35
2018-06-11T04:45:02.382Z,99468.97
2018-06-11T04:47:29.958Z,99474.11
2018-06-11T04:49:57.530Z,99481.17
2018-06-11T04:52:25.130Z,99478.86
2018-06-11T04:54:52.701Z,99489.73
2018-06-11T04:57:20.291Z,99487.20
2018-06-11T04:59:47.849Z,99478.28
2018-06-11T05:02:15.445Z,99485.91
2018-06-11T05:04:42.997Z,99483.63
2018-06-11T05:07:10.571Z,99477.93
2018-06-11T05:09:38.130Z,99484.06
2018-06-11T05:12:05.705Z,99484.20
2018-06-11T05:14:33.304Z,99479.44
2018-06-11T05:17:01.525Z,99490.48
2018-06-11T05:19:29.077Z,99485.48
2018-06-11T05:21:56.688Z,99482.23
2018-06-11T05:24:24.292Z,99485.51
2018-06-11T05:26:52.009Z,99484.25
2018-06-11T05:29:19.630Z,99490.96
2018-06-11T05:31:47.282Z,99487.45
2018-06-11T05:34:14.910Z,99491.89
2018-06-11T05:36:42.528Z,99493.54
2018-06-11T05:39:10.159Z,99488.33
2018-06-11T05:41:37.821Z,99495.27
2018-06-11T05:44:05.392Z,99497.05
2018-06-11T05:46:32.998Z,99501.21
2018-06-11T05:49:00.541Z,99495.05
2018-06-11T05:51:28.133Z,99497.81
2018-06-11T05:53:55.721Z,99500.63
2018-06-11T05:56:23.285Z,99496.44
2018-06-11T05:58:50.852Z,99491.92
2018-06-11T06:01:18.459Z,99510.80
2018-06-11T06:03:46.371Z,99512.16
2018-06-11T06:06:13.951Z,99518.02
2018-06-11T06:08:41.567Z,99520.81
2018-06-11T06:11:09.185Z,99519.73
2018-06-11T06:13:36.893Z,99522.58
2018-06-11T06:16:04.496Z,99523.42
2018-06-11T06:18:32.071Z,99528.83
2018-06-11T06:20:59.613Z,99526.72
2018-06-11T06:23:27.136Z,99532.36
2018-06-11T06:25:54.750Z,99533.18
2018-06-11T06:28:22.314Z,99532.18
2018-06-11T06:30:50.170Z,99530.73
2018-06-11T06:33:17.865Z,99528.19
2018-06-11T06:35:45.518Z,99531.45
2018-06-11T06:38:13.192Z,99535.03
2018-06-11T06:40:40.776Z,99534.00
2018-06-11T06:43:08.974Z,99538.68
2018-06-11T06:45:36.602Z,99537.55
2018-06-11T06:48:04.246Z,99539.05
2018-06-11T06:50:31.921Z,99525.08
2018-06-11T06:52:59.554Z,99525.53
2018-06-11T06:55:27.101Z,99520.62
2018-06-11T06:57:54.743Z,99518.30
2018-06-11T07:00:22.369Z,99524.76
2018-06-11T07:02:50.033Z,99533.09
2018-06-11T07:05:17.674Z,99518.71
2018-06-11T07:07:45.275Z,99523.50
2018-06-11T07:10:12.977Z,99521.85
2018-06-11T07:12:40.557Z,99519.20
2018-06-11T07:15:08.169Z,99518.25
2018-06-11T07:17:35.868Z,99523.66
2018-06-11T07:20:03.773Z,99517.34
2018-06-11T07:22:31.575Z,99520.08
2018-06-11T07:24:59.183Z,99517.34
2018-06-11T07:27:26.811Z,99524.34
2018-06-11T07:29:54.425Z,99517.70
2018-06-11T07:32:22.035Z,99514.86
2018-06-11T07:34:49.631Z,99523.44
2018-06-11T07:37:17.256Z,99513.08
2018-06-11T07:39:44.922Z,99511.62
2018-06-11T07:42:12.530Z,99503.59
2018-06-11T07:44:40.182Z,99502.51
2018-06-11T07:47:07.795Z,99508.84
2018-06-11T07:49:35.439Z,99512.08
2018-06-11T07:52:03.044Z,99520.42
2018-06-11T07:54:31.137Z,99515.20
2018-06-11T07:56:58.691Z,99510.30
2018-06-11T07:59:26.335Z,99512.86
2018-06-11T08:01:53.922Z,99521.74
2018-06-11T08:04:21.545Z,99520.45
2018-06-11T08:06:49.073Z,99519.00
2018-06-11T08:09:16.669Z,99520.95
2018-06-11T08:11:44.300Z,99517.34
2018-06-11T08:14:11.883Z,99518.77
2018-06-11T08:16:39.480Z,99520.22
2018-06-11T08:19:07.070Z,99524.11
2018-06-11T08:21:34.631Z,99522.84
2018-06-11T08:24:02.238Z,99530.16
2018-06-11T08:26:29.822Z,99529.58
2018-06-11T08:28:57.459Z,99535.02
2018-06-11T08:31:25.042Z,99531.52
2018-06-11T08:33:52.633Z,99526.80
2018-06-11T08:36:20.266Z,99529.37
2018-06-11T08:38:47.860Z,99530.30
2018-06-11T08:41:15.425Z,99532.68
2018-06-11T08:43:43.031Z,99527.17
2018-06-11T08:46:10.674Z,99528.79
2018-06-11T08:48:38.266Z,99531.26
2018-06-11T08:51:06.891Z,99531.27
2018-06-11T08:53:34.445Z,99540.35
2018-06-11T08:56:02.037Z,99546.73
2018-06-11T08:58:29.665Z,99547.56
2018-06-11T09:00:57.291Z,99549.66
2018-06-11T09:03:24.870Z,99555.22
2018-06-11T09:05:52.481Z,99552.88
2018-06-11T09:08:20.077Z,99553.58
2018-06-11T09:10:47.703Z,99556.11
2018-06-11T09:13:15.302Z,99556.70
2018-06-11T09:15:42.886Z,99560.06
2018-06-11T09:18:10.701Z,99560.88
2018-06-11T09:20:38.144Z,99561.40
2018-06-11T09:23:06.276Z,99555.92
2018-06-11T09:25:33.846Z,99560.18
2018-06-11T09:28:01.550Z,99563.66
2018-06-11T09:30:29.150Z,99553.85
2018-06-11T09:32:56.704Z,99545.63
2018-06-11T09:35:24.334Z,99555.52
2018-06-11T09:37:51.891Z,99550.41
2018-06-11T09:40:19.489Z,99554.84
2018-06-11T09:42:47.121Z,99558.69
2018-06-11T09:45:14.706Z,99560.20
2018-06-11T09:47:42.321Z,99563.11
2018-06-11T09:50:09.950Z,99567.33
2018-06-11T09:52:37.584Z,99564.51
2018-06-11T09:55:05.275Z,99566.08
2018-06-11T09:57:32.887Z,99553.06
2018-06-11T10:00:00.503Z,99557.45
2018-06-11T10:02:28.129Z,99558.03
2018-06-11T10:04:55.748Z,99561.57
2018-06-11T10:07:23.309Z,99562.83
2018-06-11T10:09:50.923Z,99557.80
2018-06-11T10:12:18.573Z,99559.03
2018-06-11T10:14:46.122Z,99564.59
2018-06-11T10:17:13.763Z,99559.80
2018-06-11T10:19:41.386Z,99554.55
2018-06-11T10:22:08.986Z,99557.63
2018-06-11T10:24:36.550Z,99553.63
2018-06-11T10:27:04.095Z,99553.28
2018-06-11T10:29:31.681Z,99546.45
2018-06-11T10:31:59.229Z,99547.08
2018-06-11T10:34:26.844Z,99541.52
2018-06-11T10:36:54.473Z,99548.64
2018-06-11T10:39:22.101Z,99543.71
2018-06-11T10:41:49.693Z,99548.71
2018-06-11T10:44:17.291Z,99544.66
2018-06-11T10:46:44.950Z,99540.36
2018-06-11T10:49:12.599Z,99548.79
2018-06-11T10:51:40.187Z,99552.67
2018-06-11T10:54:07.864Z,99552.27
2018-06-11T10:56:35.579Z,99552.05
2018-06-11T10:59:03.226Z,99546.09
2018-06-11T11:01:30.840Z,99545.69
2018-06-11T11:03:58.428Z,99542.44
2018-06-11T11:06:26.075Z,99539.86
2018-06-11T11:08:53.626Z,99541.65
2018-06-11T11:11:21.230Z,99540.01
2018-06-11T11:13:48.828Z,99542.34
2018-06-11T11:16:16.534Z,99536.37
2018-06-11T11:18:44.137Z,99541.19
2018-06-11T11:21:12.048Z,99544.59
2018-06-11T11:23:39.649Z,99532.41
2018-06-11T11:26:07.269Z,99542.48
2018-06-11T11:28:34.832Z,99547.16
2018-06-11T11:31:02.479Z,99547.03
2018-06-11T11:33:30.117Z,99542.41
2018-06-11T11:35:57.706Z,99529.27
2018-06-11T11:38:25.296Z,99528.61
2018-06-11T11:40:52.910Z,99526.21
2018-06-11T11:43:20.525Z,99520.66
2018-06-11T11:45:48.169Z,99523.41
2018-06-11T11:48:15.771Z,99523.58
2018-06-11T11:50:43.442Z,99514.63
2018-06-11T11:53:11.065Z,99513.52
2018-06-11T11:55:38.662Z,99512.13
2018-06-11T11:58:06.195Z,99507.30
2018-06-11T12:00:33.780Z,99498.92
2018-06-11T12:03:01.494Z,99489.27
2018-06-11T12:05:29.066Z,99483.37
2018-06-11T12:07:56.654Z,99479.05
2018-06-11T12:10:24.274Z,99476.03
2018-06-11T12:12:51.876Z,99475.95
2018-06-11T12:15:19.482Z,99476.28
2018-06-11T12:17:47.092Z,99478.77
2018-06-11T12:20:14.702Z,99485.41
2018-06-11T12:22:42.241Z,99487.12
2018-06-11T12:25:09.908Z,99480.21
2018-06-11T12:27:37.549Z,99468.20
2018-06-11T12:30:05.196Z,99476.24
2018-06-11T12:32:32.801Z,99475.70
2018-06-11T12:35:00.441Z,99469.90
2018-06-11T12:37:28.017Z,99464.31
2018-06-11T12:39:55.567Z,99454.69
2018-06-11T12:42:23.147Z,99454.34
2018-06-11T12:44:50.679Z,99447.74
2018-06-11T12:47:18.254Z,99437.30
2018-06-11T12:49:46.221Z,99437.91
2018-06-11T12:52:13.885Z,99434.42
2018-06-11T12:54:41.442Z,99437.02
2018-06-11T12:57:09.089Z,99435.97
2018-06-11T12:59:36.712Z,99437.37
2018-06-11T13:02:04.636Z,99428.61
2018-06-11T13:04:32.303Z,99430.61
2018-06-11T13:06:59.954Z,99422.45
2018-06-11T13:09:27.602Z,99421.17
2018-06-11T13:11:55.295Z,99426.60
2018-06-11T13:14:22.943Z,99421.08
2018-06-11T13:16:50.551Z,99419.56
2018-06-11T13:19:18.283Z,99418.84
2018-06-11T13:21:46.020Z,99412.82
2018-06-11T13:24:13.690Z,99409.11
2018-06-11T13:26:41.341Z,99402.91
2018-06-11T13:29:08.953Z,99393.00
2018-06-11T13:31:36.625Z,99396.84
2018-06-11T13:34:04.170Z,99392.23
2018-06-11T13:36:31.840Z,99380.86
2018-06-11T13:38:59.481Z,99388.22
2018-06-11T13:41:27.112Z,99381.45
2018-06-11T13:43:54.751Z,99390.13
2018-06-11T13:46:22.382Z,99391.73
2018-06-11T13:48:50.054Z,99392.92
2018-06-11T13:51:17.720Z,99382.72
2018-06-11T13:53:45.362Z,99374.59
2018-06-11T13:56:12.952Z,99366.52
2018-06-11T13:58:40.554Z,99361.22
2018-06-11T14:01:08.196Z,99357.02
2018-06-11T14:03:35.851Z,99358.00
2018-06-11T14:06:03.636Z,99352.20
2018-06-11T14:08:31.371Z,99354.97
2018-06-11T14:10:58.961Z,99347.46
2018-06-11T14:13:26.545Z,99343.34
2018-06-11T14:15:54.136Z,99345.80
2018-06-11T14:18:21.688Z,99358.31
2018-06-11T14:20:49.254Z,99358.70
2018-06-11T14:23:16.891Z,99354.97
2018-06-11T14:25:44.466Z,99347.73
2018-06-11T14:28:12.109Z,99340.34
2018-06-11T14:30:39.756Z,99340.33
2018-06-11T14:33:07.356Z,99323.71
2018-06-11T14:35:34.910Z,99325.19
2018-06-11T14:38:02.508Z,99321.44
2018-06-11T14:40:30.148Z,99315.42
2018-06-11T14:42:57.838Z,99303.41
2018-06-11T14:45:25.596Z,99307.24
2018-06-11T14:47:53.206Z,99306.45
2018-06-11T14:50:20.871Z,99308.91
2018-06-11T14:52:48.500Z,99301.79
2018-06-11T14:55:16.070Z,99288.88
2018-06-11T14:57:43.753Z,99286.53
2018-06-11T15:00:11.404Z,99279.63
2018-06-11T15:02:38.991Z,99276.10
2018-06-11T15:05:06.617Z,99275.91
2018-06-11T15:07:34.271Z,99271.56
2018-06-11T15:10:01.897Z,99260.66
2018-06-11T15:12:29.680Z,99266.36
2018-06-11T15:14:57.263Z,99261.87
2018-06-11T15:17:24.815Z,99257.36
2018-06-11T15:19:52.397Z,99261.02
2018-06-11T15:22:20.013Z,99262.07
2018-06-11T15:24:47.622Z,99255.84
2018-06-11T15:27:15.203Z,99259.98
2018-06-11T15:29:42.826Z,99263.33
2018-06-11T15:32:10.408Z,99268.49
2018-06-11T15:34:38.986Z,99272.67
2018-06-11T15:37:06.774Z,99239.08
2018-06-11T15:39:34.384Z,99286.17
2018-06-11T15:42:02.019Z,99293.74
2018-06-11T15:44:29.719Z,99285.63
2018-06-11T15:46:57.292Z,99284.60
2018-06-11T15:49:24.913Z,99283.20
2018-06-11T15:51:52.491Z,99289.52
2018-06-11T15:54:20.082Z,99268.16
2018-06-11T15:56:47.799Z,99270.78
2018-06-11T15:59:15.423Z,99271.66
2018-06-11T16:01:43.066Z,99263.17
2018-06-11T16:04:10.710Z,99253.34
2018-06-11T16:06:38.427Z,99243.70
2018-06-11T16:09:07.002Z,99236.77
2018-06-11T16:11:34.737Z,99250.07
2018-06-11T16:14:02.490Z,99224.03
2018-06-11T16:16:30.037Z,99222.22
2018-06-11T16:18:57.646Z,99210.39
2018-06-11T16:21:25.240Z,99217.42
2018-06-11T16:23:52.884Z,99200.54
2018-06-11T16:26:20.532Z,99190.56
2018-06-11T16:28:48.081Z,99187.25
2018-06-11T16:31:15.677Z,99173.48
2018-06-11T16:33:43.322Z,99179.13
2018-06-11T16:36:10.961Z,99158.78
2018-06-11T16:38:38.720Z,99161.03
2018-06-11T16:41:07.097Z,99151.04
2018-06-11T16:43:34.690Z,99165.70
2018-06-11T16:46:02.345Z,99175.39
2018-06-11T16:48:30.022Z,99167.20
2018-06-11T16:50:57.627Z,99168.66
2018-06-11T16:53:25.248Z,99168.69
2018-06-11T16:55:52.853Z,99169.88
2018-06-11T16:58:20.431Z,99169.91
2018-06-11T17:00:48.076Z,99166.86
2018-06-11T17:03:15.703Z,99158.27
2018-06-11T17:05:43.322Z,99157.40
2018-06-11T17:08:10.911Z,99157.17
2018-06-11T17:10:38.578Z,99159.89
2018-06-11T17:13:06.199Z,99158.83
2018-06-11T17:15:33.862Z,99161.42
2018-06-11T17:18:01.531Z,99153.70
2018-06-11T17:20:29.246Z,99147.45
2018-06-11T17:22:56.845Z,99139.20
2018-06-11T17:25:24.514Z,99137.39
2018-06-11T17:27:52.189Z,99132.31
2018-06-11T17:30:19.778Z,99125.23
2018-06-11T17:32:47.317Z,99129.84
2018-06-11T17:35:14.935Z,99124.94
2018-06-11T17:37:42.475Z,99118.03
2018-06-11T17:40:10.047Z,99127.45
2018-06-11T17:42:37.715Z,99121.80
2018-06-11T17:45:05.340Z,99117.16
2018-06-11T17:47:33.052Z,99121.41
2018-06-11T17:50:00.682Z,99123.10
2018-06-11T17:52:28.299Z,99126.46
2018-06-11T17:54:55.989Z,99133.19
2018-06-11T17:57:24.920Z,99120.04
2018-06-11T17:59:52.613Z,99117.42
2018-06-11T18:02:20.277Z,99112.45
2018-06-11T18:04:47.961Z,99112.97
2018-06-11T18:07:15.578Z,99118.94
2018-06-11T18:09:43.168Z,99121.06
2018-06-11T18:12:10.760Z,99130.33
2018-06-11T18:14:38.448Z,99138.72
2018-06-11T18:17:06.162Z,99143.80
2018-06-11T18:19:33.820Z,99148.36
2018-06-11T18:22:01.500Z,99149.81
2018-06-11T18:24:29.155Z,99157.87
2018-06-11T18:26:57.046Z,99160.84
2018-06-11T18:29:24.779Z,99155.50
2018-06-11T18:31:52.545Z,99169.24
2018-06-11T18:34:20.250Z,99174.72
2018-06-11T18:36:48.045Z,99172.55
2018-06-11T18:39:16.123Z,99173.48
2018-06-11T18:41:43.859Z,99184.07
2018-06-11T18:44:11.571Z,99182.60
2018-06-11T18:46:39.292Z,99180.96
2018-06-11T18:49:07.016Z,99179.86
2018-06-11T18:51:34.742Z,99176.98
2018-06-11T18:54:02.657Z,99173.47
2018-06-11T18:56:30.431Z,99165.04
2018-06-11T18:58:58.175Z,99161.25
2018-06-11T19:01:25.875Z,99166.54
2018-06-11T19:03:53.753Z,99151.79
2018-06-11T19:06:22.701Z,99153.28
2018-06-11T19:08:50.370Z,99145.03
2018-06-11T19:11:17.988Z,99136.08
2018-06-11T19:13:45.752Z,99128.51
2018-06-11T19:16:13.464Z,99131.48
2018-06-11T19:18:41.312Z,99130.80
2018-06-11T19:21:08.917Z,99124.91
2018-06-11T19:23:36.554Z,99110.73
2018-06-11T19:26:04.224Z,99106.59
2018-06-11T19:28:31.858Z,99110.47
2018-06-11T19:30:59.482Z,99111.87
2018-06-11T19:33:27.070Z,99110.95
2018-06-11T19:35:54.760Z,99110.39
2018-06-11T19:38:22.358Z,99116.49
2018-06-11T19:40:50.057Z,99112.22
2018-06-11T19:43:17.663Z,99108.12
2018-06-11T19:45:45.286Z,99100.20
2018-06-11T19:48:12.932Z,99108.28
2018-06-11T19:50:40.574Z,99101.37
2018-06-11T19:53:08.256Z,99110.98
2018-06-11T19:55:35.961Z,99112.41
2018-06-11T19:58:03.670Z,99115.26
2018-06-11T20:00:31.384Z,99113.64
2018-06-11T20:02:58.982Z,99114.26
2018-06-11T20:05:26.649Z,99122.53
2018-06-11T20:07:54.373Z,99129.27
2018-06-11T20:10:22.035Z,99140.35
2018-06-11T20:12:49.667Z,99146.66
2018-06-11T20:15:17.390Z,99152.11
2018-06-11T20:17:45.099Z,99151.48
2018-06-11T20:20:12.851Z,99151.66
2018-06-11T20:22:41.188Z,99149.41
2018-06-11T20:25:09.782Z,99143.12
2018-06-11T20:27:37.466Z,99139.24
2018-06-11T20:30:05.155Z,99142.97
2018-06-11T20:32:32.814Z,99140.73
2018-06-11T20:35:00.480Z,99142.12
2018-06-11T20:37:28.142Z,99145.41
2018-06-11T20:39:55.829Z,99149.56
2018-06-11T20:42:23.640Z,99152.34
2018-06-11T20:44:51.386Z,99150.05
2018-06-11T20:47:19.202Z,99145.63
2018-06-11T20:49:46.936Z,99146.71
2018-06-11T20:52:14.678Z,99144.97
2018-06-11T20:54:42.506Z,99143.73
2018-06-11T20:57:10.528Z,99143.55
2018-06-11T20:59:39.020Z,99139.47
2018-06-11T21:02:09.596Z,99141.92
2018-06-11T21:04:37.360Z,99141.44
2018-06-11T21:07:05.256Z,99147.42
2018-06-11T21:09:32.887Z,99148.37
2018-06-11T21:12:00.556Z,99144.97
2018-06-11T21:14:28.778Z,99141.67
2018-06-11T21:16:56.831Z,99138.58
2018-06-11T21:19:24.556Z,99140.34
2018-06-11T21:21:52.319Z,99144.04
2018-06-11T21:24:20.355Z,99143.84
2018-06-11T21:26:48.688Z,99140.98
2018-06-11T21:29:16.499Z,99140.55
2018-06-11T21:31:44.382Z,99136.15
2018-06-11T21:34:12.092Z,99135.32
2018-06-11T21:36:39.786Z,99131.70
2018-06-11T21:39:08.217Z,99129.66
2018-06-11T21:41:35.898Z,99127.33
2018-06-11T21:44:03.796Z,99127.41
2018-06-11T21:46:31.454Z,99133.05
2018-06-11T21:48:59.161Z,99122.39
2018-06-11T21:51:27.027Z,99126.38
2018-06-11T21:53:54.985Z,99132.84
2018-06-11T21:56:22.704Z,99127.38
2018-06-11T21:58:50.482Z,99127.25
2018-06-11T22:01:18.580Z,99128.77
2018-06-11T22:03:46.468Z,99118.70
2018-06-11T22:06:14.230Z,99116.80
2018-06-11T22:08:42.057Z,99104.55
2018-06-11T22:11:09.792Z,99097.13
2018-06-11T22:13:37.549Z,99098.58
2018-06-11T22:16:05.272Z,99092.64
2018-06-11T22:18:33.265Z,99093.59
2018-06-11T22:21:00.994Z,99092.97
2018-06-11T22:23:28.662Z,99096.05
2018-06-11T22:25:56.926Z,99097.20
2018-06-11T22:28:24.639Z,99098.77
2018-06-11T22:30:52.312Z,99097.32
2018-06-11T22:33:20.090Z,99097.80
2018-06-11T22:35:47.856Z,99097.11
2018-06-11T22:38:15.675Z,99103.59
2018-06-11T22:40:43.381Z,99104.94
2018-06-11T22:43:11.234Z,99099.09
2018-06-11T22:45:38.991Z,99090.25
2018-06-11T22:48:06.720Z,99096.31
2018-06-11T22:50:34.443Z,99086.96
2018-06-11T22:53:02.116Z,99088.14
2018-06-11T22:55:29.775Z,99090.34
2018-06-11T22:57:57.447Z,99094.25
2018-06-11T23:00:32.944Z,99094.03
2018-06-11T23:03:01.039Z,99090.19
2018-06-11T23:05:28.849Z,99094.30
2018-06-11T23:07:58.151Z,99089.59
2018-06-11T23:10:25.840Z,99087.95
2018-06-11T23:12:53.555Z,99086.72
2018-06-11T23:15:21.249Z,99082.25
2018-06-11T23:17:48.915Z,99081.39
2018-06-11T23:20:16.501Z,99086.02
2018-06-11T23:22:44.059Z,99076.33
2018-06-11T23:25:11.668Z,99077.59
2018-06-11T23:27:39.320Z,99088.50
2018-06-11T23:30:06.951Z,99081.19
2018-06-11T23:32:34.583Z,99075.39
2018-06-11T23:35:02.237Z,99076.05
2018-06-11T23:37:29.820Z,99080.41
2018-06-11T23:39:57.410Z,99082.52
2018-06-11T23:42:25.062Z,99075.31
2018-06-11T23:44:52.668Z,99083.62
2018-06-11T23:47:20.412Z,99083.31
2018-06-11T23:49:48.068Z,99084.77
2018-06-11T23:52:15.734Z,99077.34
2018-06-11T23:54:43.454Z,99071.19
2018-06-11T23:57:11.323Z,99076.40
2018-06-11T23:59:38.978Z,99070.88
